createdAt,value
2023-04-10T00:00:09.392Z,50.877213
2023-04-10T00:01:09.417Z,50.877216
2023-04-10T00:02:09.520Z,50.877205
2023-04-10T00:03:09.575Z,50.877293
2023-04-10T00:04:09.646Z,50.877316
2023-04-10T00:05:09.370Z,50.877304
2023-04-10T00:06:09.339Z,50.877258
2023-04-10T00:07:09.307Z,50.877312
2023-04-10T00:08:09.316Z,50.877312
2023-04-10T00:09:09.321Z,50.877331
2023-04-10T00:10:09.324Z,50.877357
2023-04-10T00:11:09.275Z,50.877312
2023-04-10T00:12:09.249Z,50.877308
2023-04-10T00:13:09.292Z,50.877323
2023-04-10T00:14:09.257Z,50.877399
2023-04-10T00:15:09.250Z,50.877369
2023-04-10T00:16:09.242Z,50.877365
2023-04-10T00:17:09.243Z,50.877350
2023-04-10T00:18:09.217Z,50.877380
2023-04-10T00:19:09.211Z,50.877380
2023-04-10T00:20:09.206Z,50.877380
2023-04-10T00:21:09.180Z,50.877380
2023-04-10T00:22:09.192Z,50.877380
2023-04-10T00:23:09.192Z,50.877380
2023-04-10T00:24:09.173Z,50.877380
2023-04-10T00:25:09.165Z,50.877380
2023-04-10T00:26:09.148Z,50.877380
2023-04-10T00:27:09.146Z,50.877380
2023-04-10T00:28:09.097Z,50.877380
2023-04-10T00:29:09.118Z,50.877380
2023-04-10T00:30:09.213Z,50.876965
2023-04-10T00:31:09.085Z,50.877247
2023-04-10T00:32:09.127Z,50.877220
2023-04-10T00:33:09.144Z,50.877205
2023-04-10T00:34:09.092Z,50.877201
2023-04-10T00:35:09.065Z,50.877190
2023-04-10T00:36:09.085Z,50.877186
2023-04-10T00:37:08.997Z,50.877197
2023-04-10T00:38:09.026Z,50.877178
2023-04-10T00:39:09.071Z,50.877209
2023-04-10T00:40:09.038Z,50.877178
2023-04-10T00:41:09.015Z,50.877148
2023-04-10T00:42:08.992Z,50.877140
2023-04-10T00:43:08.977Z,50.877205
2023-04-10T00:44:08.974Z,50.877186
2023-04-10T00:45:08.961Z,50.877171
2023-04-10T00:46:09.005Z,50.877144
2023-04-10T00:47:08.914Z,50.877110
2023-04-10T00:48:08.946Z,50.877174
2023-04-10T00:49:08.928Z,50.877148
2023-04-10T00:50:08.900Z,50.877167
2023-04-10T00:51:08.888Z,50.877216
2023-04-10T00:52:08.860Z,50.877247
2023-04-10T00:53:08.860Z,50.877304
2023-04-10T00:54:08.871Z,50.877262
2023-04-10T00:55:08.826Z,50.877235
2023-04-10T00:56:08.845Z,50.877235
2023-04-10T00:57:08.840Z,50.877232
2023-04-10T00:58:08.792Z,50.877186
2023-04-10T00:59:08.801Z,50.877216
2023-04-10T01:00:08.775Z,50.877197
2023-04-10T01:01:08.905Z,50.877102
2023-04-10T01:02:08.848Z,50.877094
2023-04-10T01:03:08.872Z,50.877220
2023-04-10T01:04:08.831Z,50.877201
2023-04-10T01:05:08.778Z,50.877178
2023-04-10T01:06:08.745Z,50.877167
2023-04-10T01:07:08.746Z,50.877201
2023-04-10T01:08:08.730Z,50.877182
2023-04-10T01:09:08.708Z,50.877178
2023-04-10T01:10:08.692Z,50.877106
2023-04-10T01:11:09.638Z,50.877159
2023-04-10T01:12:08.686Z,50.877159
2023-04-10T01:13:08.704Z,50.877178
2023-04-10T01:14:08.685Z,50.877171
2023-04-10T01:15:08.650Z,50.877174
2023-04-10T01:16:08.626Z,50.877155
2023-04-10T01:17:08.789Z,50.877129
2023-04-10T01:18:08.776Z,50.877151
2023-04-10T01:19:08.596Z,50.877129
2023-04-10T01:20:08.585Z,50.877174
2023-04-10T01:21:08.598Z,50.877201
2023-04-10T01:22:08.572Z,50.877190
2023-04-10T01:23:08.592Z,50.877140
2023-04-10T01:24:08.626Z,50.877144
2023-04-10T01:25:08.581Z,50.877171
2023-04-10T01:26:08.512Z,50.877171
2023-04-10T01:27:08.510Z,50.877228
2023-04-10T01:28:08.508Z,50.877182
2023-04-10T01:29:08.482Z,50.877186
2023-04-10T01:30:08.504Z,50.877171
2023-04-10T01:31:08.536Z,50.877209
2023-04-10T01:32:08.477Z,50.877201
2023-04-10T01:33:08.458Z,50.877186
2023-04-10T01:34:08.510Z,50.877186
2023-04-10T01:35:08.461Z,50.877205
2023-04-10T01:36:08.468Z,50.877159
2023-04-10T01:37:08.510Z,50.877167
2023-04-10T01:38:08.432Z,50.877182
2023-04-10T01:39:08.459Z,50.877178
2023-04-10T01:40:08.404Z,50.877213
2023-04-10T01:41:08.369Z,50.877220
2023-04-10T01:42:08.415Z,50.877209
2023-04-10T01:43:08.347Z,50.877182
2023-04-10T01:44:08.382Z,50.877167
2023-04-10T01:45:08.327Z,50.877171
2023-04-10T01:46:08.387Z,50.877213
2023-04-10T01:47:08.346Z,50.877190
2023-04-10T01:48:08.334Z,50.877174
2023-04-10T01:49:08.331Z,50.877178
2023-04-10T01:50:08.277Z,50.877174
2023-04-10T01:51:08.316Z,50.877163
2023-04-10T01:52:08.313Z,50.877163
2023-04-10T01:53:08.276Z,50.877167
2023-04-10T01:54:08.263Z,50.877209
2023-04-10T01:55:08.241Z,50.877228
2023-04-10T01:56:08.275Z,50.877235
2023-04-10T01:57:08.237Z,50.877243
2023-04-10T01:58:08.248Z,50.877201
2023-04-10T01:59:08.210Z,50.877151
2023-04-10T02:00:08.217Z,50.877174
2023-04-10T02:01:10.226Z,50.877228
2023-04-10T02:02:09.309Z,50.877251
2023-04-10T02:03:08.372Z,50.877235
2023-04-10T02:04:08.236Z,50.877220
2023-04-10T02:05:08.198Z,50.877213
2023-04-10T02:06:08.154Z,50.877201
2023-04-10T02:07:08.136Z,50.877205
2023-04-10T02:08:08.123Z,50.877216
2023-04-10T02:09:08.111Z,50.877182
2023-04-10T02:10:08.140Z,50.877174
2023-04-10T02:11:08.140Z,50.877163
2023-04-10T02:12:08.092Z,50.877197
2023-04-10T02:13:08.069Z,50.877182
2023-04-10T02:14:08.079Z,50.877174
2023-04-10T02:15:08.068Z,50.877205
2023-04-10T02:16:08.073Z,50.877182
2023-04-10T02:17:08.049Z,50.877201
2023-04-10T02:18:08.003Z,50.877209
2023-04-10T02:19:07.999Z,50.877216
2023-04-10T02:20:08.008Z,50.877220
2023-04-10T02:21:08.013Z,50.877209
2023-04-10T02:22:07.983Z,50.877197
2023-04-10T02:23:08.022Z,50.877209
2023-04-10T02:24:07.939Z,50.877190
2023-04-10T02:25:07.970Z,50.877197
2023-04-10T02:26:07.998Z,50.877209
2023-04-10T02:27:07.944Z,50.877209
2023-04-10T02:28:07.946Z,50.877182
2023-04-10T02:29:07.940Z,50.877178
2023-04-10T02:30:39.931Z,50.877163
2023-04-10T02:31:07.982Z,50.877163
2023-04-10T02:32:07.932Z,50.877178
2023-04-10T02:33:07.863Z,50.877193
2023-04-10T02:34:07.852Z,50.877258
2023-04-10T02:35:07.855Z,50.877220
2023-04-10T02:36:07.912Z,50.877254
2023-04-10T02:37:07.842Z,50.877232
2023-04-10T02:38:07.859Z,50.877258
2023-04-10T02:39:07.820Z,50.877277
2023-04-10T02:40:07.811Z,50.877254
2023-04-10T02:41:07.830Z,50.877224
2023-04-10T02:42:07.790Z,50.877216
2023-04-10T02:43:07.836Z,50.877251
2023-04-10T02:44:07.788Z,50.877251
2023-04-10T02:45:07.791Z,50.877319
2023-04-10T02:46:07.754Z,50.877346
2023-04-10T02:47:08.013Z,50.877251
2023-04-10T02:48:07.732Z,50.877529
2023-04-10T02:49:07.742Z,50.877449
2023-04-10T02:50:07.711Z,50.877277
2023-04-10T02:51:07.731Z,50.877533
2023-04-10T02:52:07.684Z,50.877392
2023-04-10T02:53:07.707Z,50.877239
2023-04-10T02:54:07.672Z,50.877174
2023-04-10T02:55:07.669Z,50.877110
2023-04-10T02:56:07.697Z,50.877285
2023-04-10T02:57:07.668Z,50.877293
2023-04-10T02:58:07.685Z,50.877506
2023-04-10T02:59:07.643Z,50.877056
2023-04-10T03:00:07.620Z,50.877106
2023-04-10T03:01:07.636Z,50.877296
2023-04-10T03:02:07.696Z,50.877266
2023-04-10T03:03:07.720Z,50.877289
2023-04-10T03:04:07.777Z,50.877357
2023-04-10T03:05:07.632Z,50.877529
2023-04-10T03:06:08.161Z,50.877296
2023-04-10T03:07:08.533Z,50.877384
2023-04-10T03:08:07.535Z,50.877407
2023-04-10T03:09:07.587Z,50.877605
2023-04-10T03:10:07.537Z,50.877335
2023-04-10T03:11:07.522Z,50.877377
2023-04-10T03:12:07.534Z,50.877186
2023-04-10T03:13:07.506Z,50.877190
2023-04-10T03:14:07.470Z,50.877182
2023-04-10T03:15:07.541Z,50.877174
2023-04-10T03:16:07.479Z,50.877205
2023-04-10T03:17:07.493Z,50.877186
2023-04-10T03:18:07.531Z,50.877247
2023-04-10T03:19:07.469Z,50.877270
2023-04-10T03:20:07.456Z,50.877262
2023-04-10T03:21:07.429Z,50.877251
2023-04-10T03:22:07.400Z,50.877243
2023-04-10T03:23:07.418Z,50.877258
2023-04-10T03:24:07.412Z,50.877266
2023-04-10T03:25:07.395Z,50.877300
2023-04-10T03:26:07.356Z,50.877239
2023-04-10T03:27:07.348Z,50.877239
2023-04-10T03:28:07.342Z,50.877251
2023-04-10T03:29:07.357Z,50.877220
2023-04-10T03:30:07.343Z,50.877251
2023-04-10T03:31:07.372Z,50.877270
2023-04-10T03:32:07.315Z,50.877216
2023-04-10T03:33:07.306Z,50.877235
2023-04-10T03:34:07.271Z,50.877224
2023-04-10T03:35:07.268Z,50.877262
2023-04-10T03:36:07.317Z,50.877296
2023-04-10T03:37:07.304Z,50.877277
2023-04-10T03:38:07.251Z,50.877216
2023-04-10T03:39:07.230Z,50.877216
2023-04-10T03:40:07.230Z,50.877224
2023-04-10T03:41:07.217Z,50.877224
2023-04-10T03:42:07.281Z,50.877209
2023-04-10T03:43:07.209Z,50.877216
2023-04-10T03:44:07.225Z,50.877182
2023-04-10T03:45:07.175Z,50.877262
2023-04-10T03:46:07.193Z,50.877243
2023-04-10T03:47:07.238Z,50.877239
2023-04-10T03:48:07.253Z,50.877224
2023-04-10T03:49:07.163Z,50.877113
2023-04-10T03:50:07.169Z,50.877117
2023-04-10T03:51:07.103Z,50.877182
2023-04-10T03:52:07.095Z,50.877182
2023-04-10T03:53:07.135Z,50.877186
2023-04-10T03:54:07.111Z,50.877197
2023-04-10T03:55:07.120Z,50.877178
2023-04-10T03:56:07.090Z,50.877182
2023-04-10T03:57:07.068Z,50.877193
2023-04-10T03:58:07.060Z,50.877197
2023-04-10T03:59:07.073Z,50.877201
2023-04-10T04:00:07.078Z,50.877193
2023-04-10T04:01:07.045Z,50.877148
2023-04-10T04:02:07.164Z,50.877178
2023-04-10T04:03:07.132Z,50.877159
2023-04-10T04:04:07.169Z,50.877186
2023-04-10T04:05:07.053Z,50.877197
2023-04-10T04:06:06.981Z,50.877209
2023-04-10T04:07:06.972Z,50.877213
2023-04-10T04:08:06.995Z,50.877155
2023-04-10T04:09:06.947Z,50.877190
2023-04-10T04:10:06.927Z,50.877197
2023-04-10T04:11:06.923Z,50.877193
2023-04-10T04:12:07.013Z,50.877182
2023-04-10T04:13:06.916Z,50.877193
2023-04-10T04:14:06.947Z,50.877205
2023-04-10T04:15:06.900Z,50.877174
2023-04-10T04:16:06.950Z,50.877190
2023-04-10T04:17:06.886Z,50.877167
2023-04-10T04:18:06.908Z,50.877193
2023-04-10T04:19:06.848Z,50.877209
2023-04-10T04:20:06.857Z,50.877178
2023-04-10T04:21:06.833Z,50.877171
2023-04-10T04:22:06.855Z,50.877171
2023-04-10T04:23:06.793Z,50.877182
2023-04-10T04:24:06.877Z,50.877174
2023-04-10T04:25:06.808Z,50.877171
2023-04-10T04:26:06.806Z,50.877190
2023-04-10T04:27:06.798Z,50.877186
2023-04-10T04:28:06.777Z,50.877190
2023-04-10T04:29:06.804Z,50.877193
2023-04-10T04:30:06.743Z,50.877190
2023-04-10T04:31:06.761Z,50.877197
2023-04-10T04:32:06.780Z,50.877201
2023-04-10T04:33:06.759Z,50.877220
2023-04-10T04:34:06.691Z,50.877197
2023-04-10T04:35:06.744Z,50.877178
2023-04-10T04:36:06.707Z,50.877178
2023-04-10T04:37:06.710Z,50.877171
2023-04-10T04:38:06.667Z,50.877186
2023-04-10T04:39:06.647Z,50.877167
2023-04-10T04:40:06.640Z,50.877197
2023-04-10T04:41:06.750Z,50.877193
2023-04-10T04:42:06.621Z,50.877193
2023-04-10T04:43:06.620Z,50.877186
2023-04-10T04:44:06.600Z,50.877213
2023-04-10T04:45:06.600Z,50.877209
2023-04-10T04:46:06.642Z,50.877193
2023-04-10T04:47:06.614Z,50.877220
2023-04-10T04:48:06.587Z,50.877197
2023-04-10T04:49:06.563Z,50.877201
2023-04-10T04:50:06.563Z,50.877174
2023-04-10T04:51:06.545Z,50.877182
2023-04-10T04:52:06.590Z,50.877159
2023-04-10T04:53:08.020Z,50.877201
2023-04-10T04:54:07.527Z,50.877193
2023-04-10T04:55:06.519Z,50.877197
2023-04-10T04:56:06.495Z,50.877224
2023-04-10T04:57:06.506Z,50.877197
2023-04-10T04:58:06.504Z,50.877190
2023-04-10T04:59:06.488Z,50.877197
2023-04-10T05:00:06.473Z,50.877216
2023-04-10T05:01:06.496Z,50.877186
2023-04-10T05:02:06.531Z,50.877201
2023-04-10T05:03:06.573Z,50.877193
2023-04-10T05:04:06.554Z,50.877182
2023-04-10T05:05:06.434Z,50.877190
2023-04-10T05:06:06.436Z,50.877197
2023-04-10T05:07:06.385Z,50.877193
2023-04-10T05:08:06.395Z,50.877201
2023-04-10T05:09:06.352Z,50.877201
2023-04-10T05:10:06.326Z,50.877193
2023-04-10T05:11:06.361Z,50.877197
2023-04-10T05:12:06.347Z,50.877197
2023-04-10T05:13:06.380Z,50.877151
2023-04-10T05:14:06.328Z,50.877167
2023-04-10T05:15:06.316Z,50.877205
2023-04-10T05:16:06.327Z,50.877213
2023-04-10T05:17:06.272Z,50.877190
2023-04-10T05:18:06.371Z,50.877182
2023-04-10T05:19:06.274Z,50.877197
2023-04-10T05:20:06.238Z,50.877201
2023-04-10T05:21:06.262Z,50.877193
2023-04-10T05:22:06.250Z,50.877171
2023-04-10T05:23:06.245Z,50.877193
2023-04-10T05:24:06.230Z,50.877209
2023-04-10T05:25:06.220Z,50.877186
2023-04-10T05:26:06.191Z,50.877186
2023-04-10T05:27:06.183Z,50.877197
2023-04-10T05:28:06.182Z,50.877178
2023-04-10T05:29:06.197Z,50.877182
2023-04-10T05:30:06.142Z,50.877193
2023-04-10T05:31:06.173Z,50.877201
2023-04-10T05:32:06.138Z,50.877178
2023-04-10T05:33:06.140Z,50.877178
2023-04-10T05:34:06.123Z,50.877167
2023-04-10T05:35:06.140Z,50.877190
2023-04-10T05:36:06.108Z,50.877205
2023-04-10T05:37:06.088Z,50.877201
2023-04-10T05:38:06.084Z,50.877205
2023-04-10T05:39:06.061Z,50.877216
2023-04-10T05:40:06.057Z,50.877178
2023-04-10T05:41:06.086Z,50.877213
2023-04-10T05:42:06.029Z,50.877155
2023-04-10T05:43:06.009Z,50.877220
2023-04-10T05:44:06.054Z,50.877178
2023-04-10T05:45:05.994Z,50.877186
2023-04-10T05:46:06.095Z,50.877171
2023-04-10T05:47:07.106Z,50.877159
2023-04-10T05:48:06.026Z,50.877193
2023-04-10T05:49:06.059Z,50.877174
2023-04-10T05:50:05.936Z,50.877232
2023-04-10T05:51:06.968Z,50.877224
2023-04-10T05:52:06.024Z,50.877228
2023-04-10T05:53:05.936Z,50.877232
2023-04-10T05:54:05.908Z,50.877205
2023-04-10T05:55:05.909Z,50.877213
2023-04-10T05:56:05.951Z,50.877205
2023-04-10T05:57:05.941Z,50.877140
2023-04-10T05:58:05.848Z,50.877148
2023-04-10T05:59:05.862Z,50.877190
2023-04-10T06:00:05.854Z,50.877201
2023-04-10T06:01:05.863Z,50.877209
2023-04-10T06:02:05.844Z,50.877163
2023-04-10T06:03:05.893Z,50.877159
2023-04-10T06:04:05.888Z,50.877216
2023-04-10T06:05:05.876Z,50.877213
2023-04-10T06:06:05.788Z,50.877178
2023-04-10T06:07:05.799Z,50.877186
2023-04-10T06:08:05.766Z,50.877220
2023-04-10T06:09:05.778Z,50.877155
2023-04-10T06:10:05.757Z,50.877232
2023-04-10T06:11:05.723Z,50.877220
2023-04-10T06:12:05.729Z,50.877216
2023-04-10T06:13:08.703Z,50.877197
2023-04-10T06:14:05.756Z,50.877197
2023-04-10T06:15:05.713Z,50.877216
2023-04-10T06:16:05.769Z,50.877171
2023-04-10T06:17:05.660Z,50.877243
2023-04-10T06:18:05.677Z,50.877247
2023-04-10T06:19:05.787Z,50.877205
2023-04-10T06:20:05.710Z,50.877205
2023-04-10T06:21:05.642Z,50.877182
2023-04-10T06:22:05.607Z,50.877228
2023-04-10T06:23:05.645Z,50.877232
2023-04-10T06:24:05.652Z,50.877224
2023-04-10T06:25:05.650Z,50.877224
2023-04-10T06:26:06.127Z,50.877224
2023-04-10T06:27:05.571Z,50.877106
2023-04-10T06:28:05.572Z,50.877159
2023-04-10T06:29:05.564Z,50.877144
2023-04-10T06:30:05.557Z,50.877197
2023-04-10T06:31:05.632Z,50.877220
2023-04-10T06:32:05.551Z,50.877213
2023-04-10T06:33:05.819Z,50.877232
2023-04-10T06:34:05.507Z,50.877224
2023-04-10T06:35:05.523Z,50.877209
2023-04-10T06:36:05.585Z,50.877228
2023-04-10T06:37:05.469Z,50.877243
2023-04-10T06:38:05.492Z,50.877247
2023-04-10T06:39:05.461Z,50.877228
2023-04-10T06:40:05.461Z,50.877262
2023-04-10T06:41:05.457Z,50.877205
2023-04-10T06:42:05.429Z,50.877201
2023-04-10T06:43:05.422Z,50.877216
2023-04-10T06:44:05.412Z,50.877216
2023-04-10T06:45:05.432Z,50.877201
2023-04-10T06:46:05.399Z,50.877197
2023-04-10T06:47:05.427Z,50.877258
2023-04-10T06:48:05.372Z,50.877182
2023-04-10T06:49:05.358Z,50.877186
2023-04-10T06:50:05.367Z,50.877186
2023-04-10T06:51:05.373Z,50.877209
2023-04-10T06:52:05.311Z,50.877178
2023-04-10T06:53:05.362Z,50.877186
2023-04-10T06:54:05.325Z,50.877163
2023-04-10T06:55:05.283Z,50.877178
2023-04-10T06:56:05.307Z,50.877136
2023-04-10T06:57:05.280Z,50.877235
2023-04-10T06:58:05.287Z,50.877174
2023-04-10T06:59:05.256Z,50.877167
2023-04-10T07:00:05.245Z,50.877201
2023-04-10T07:01:05.330Z,50.877182
2023-04-10T07:02:05.290Z,50.877186
2023-04-10T07:03:05.438Z,50.877186
2023-04-10T07:04:06.305Z,50.877174
2023-04-10T07:05:05.198Z,50.877167
2023-04-10T07:06:05.243Z,50.877213
2023-04-10T07:07:05.309Z,50.877419
2023-04-10T07:08:05.173Z,50.877319
2023-04-10T07:09:05.157Z,50.877296
2023-04-10T07:10:05.186Z,50.877350
2023-04-10T07:11:05.157Z,50.877361
2023-04-10T07:12:05.150Z,50.877251
2023-04-10T07:13:05.141Z,50.877193
2023-04-10T07:14:05.141Z,50.877159
2023-04-10T07:15:05.132Z,50.877354
2023-04-10T07:16:05.118Z,50.877468
2023-04-10T07:17:05.095Z,50.877586
2023-04-10T07:18:05.085Z,50.877586
2023-04-10T07:19:05.063Z,50.877586
2023-04-10T07:20:05.070Z,50.877739
2023-04-10T07:21:05.041Z,50.877636
2023-04-10T07:22:05.050Z,50.877628
2023-04-10T07:23:05.032Z,50.877628
2023-04-10T07:24:05.193Z,50.877628
2023-04-10T07:25:05.023Z,50.877628
2023-04-10T07:26:05.027Z,50.877628
2023-04-10T07:27:05.021Z,50.877457
2023-04-10T07:28:04.977Z,50.877419
2023-04-10T07:29:04.974Z,50.877327
2023-04-10T07:30:04.954Z,50.877357
2023-04-10T07:31:04.975Z,50.877399
2023-04-10T07:32:05.000Z,50.877377
2023-04-10T07:33:05.038Z,50.877365
2023-04-10T07:34:04.978Z,50.877365
2023-04-10T07:35:04.882Z,50.877365
2023-04-10T07:36:04.927Z,50.877365
2023-04-10T07:37:04.891Z,50.877365
2023-04-10T07:38:04.912Z,50.877201
2023-04-10T07:39:04.849Z,50.877163
2023-04-10T07:40:04.920Z,50.877289
2023-04-10T07:41:04.853Z,50.877224
2023-04-10T07:42:04.849Z,50.877190
2023-04-10T07:43:04.848Z,50.877190
2023-04-10T07:44:04.848Z,50.877171
2023-04-10T07:45:04.849Z,50.877144
2023-04-10T07:46:04.826Z,50.877148
2023-04-10T07:47:04.783Z,50.877190
2023-04-10T07:48:04.830Z,50.877186
2023-04-10T07:49:07.308Z,50.877205
2023-04-10T07:50:04.776Z,50.877197
2023-04-10T07:51:04.764Z,50.877197
2023-04-10T07:52:04.764Z,50.877148
2023-04-10T07:53:04.757Z,50.877151
2023-04-10T07:54:04.746Z,50.877167
2023-04-10T07:55:04.748Z,50.877171
2023-04-10T07:56:04.719Z,50.877151
2023-04-10T07:57:04.707Z,50.877155
2023-04-10T07:58:04.707Z,50.877163
2023-04-10T07:59:04.786Z,50.877151
2023-04-10T08:00:04.714Z,50.877174
2023-04-10T08:01:04.667Z,50.877182
2023-04-10T08:02:04.739Z,50.877163
2023-04-10T08:03:04.793Z,50.877155
2023-04-10T08:04:05.875Z,50.877174
2023-04-10T08:05:05.685Z,50.877178
2023-04-10T08:06:04.603Z,50.877190
2023-04-10T08:07:04.599Z,50.877201
2023-04-10T08:08:04.592Z,50.877159
2023-04-10T08:09:04.618Z,50.877163
2023-04-10T08:10:04.569Z,50.877171
2023-04-10T08:11:04.610Z,50.877171
2023-04-10T08:12:04.568Z,50.877163
2023-04-10T08:13:04.516Z,50.877178
2023-04-10T08:14:04.532Z,50.877159
2023-04-10T08:15:04.513Z,50.877171
2023-04-10T08:16:04.502Z,50.877174
2023-04-10T08:17:04.738Z,50.877174
2023-04-10T08:18:04.529Z,50.877216
2023-04-10T08:19:04.469Z,50.877213
2023-04-10T08:20:04.477Z,50.877193
2023-04-10T08:21:04.508Z,50.877178
2023-04-10T08:22:04.497Z,50.877155
2023-04-10T08:23:17.195Z,50.877159
2023-04-10T08:24:05.432Z,50.877197
2023-04-10T08:25:04.411Z,50.877197
2023-04-10T08:26:04.417Z,50.877178
2023-04-10T08:27:04.397Z,50.877159
2023-04-10T08:28:04.418Z,50.877155
2023-04-10T08:29:05.385Z,50.877163
2023-04-10T08:30:04.360Z,50.877174
2023-04-10T08:31:36.288Z,50.877178
2023-04-10T08:32:04.365Z,50.877201
2023-04-10T08:33:04.380Z,50.877205
2023-04-10T08:34:04.352Z,50.877182
2023-04-10T08:35:05.342Z,50.877151
2023-04-10T08:36:04.336Z,50.877167
2023-04-10T08:37:04.336Z,50.877144
2023-04-10T08:38:13.433Z,50.877182
2023-04-10T08:39:05.308Z,50.877182
2023-04-10T08:40:04.338Z,50.877186
2023-04-10T08:41:04.291Z,50.877182
2023-04-10T08:42:04.253Z,50.877163
2023-04-10T08:43:04.247Z,50.877193
2023-04-10T08:44:04.235Z,50.877167
2023-04-10T08:45:04.245Z,50.877190
2023-04-10T08:46:04.252Z,50.877193
2023-04-10T08:47:04.216Z,50.877186
2023-04-10T08:48:04.271Z,50.877174
2023-04-10T08:49:04.208Z,50.877148
2023-04-10T08:50:04.192Z,50.877144
2023-04-10T08:51:04.361Z,50.877190
2023-04-10T08:52:04.159Z,50.877205
2023-04-10T08:53:04.141Z,50.877186
2023-04-10T08:54:04.130Z,50.877201
2023-04-10T08:55:04.136Z,50.877182
2023-04-10T08:56:04.201Z,50.877178
2023-04-10T08:57:04.136Z,50.877182
2023-04-10T08:58:04.103Z,50.877174
2023-04-10T08:59:04.080Z,50.877163
2023-04-10T09:01:06.136Z,50.877159
2023-04-10T09:02:04.167Z,50.877220
2023-04-10T09:03:04.146Z,50.877182
2023-04-10T09:04:04.109Z,50.877251
2023-04-10T09:05:04.018Z,50.877186
2023-04-10T09:06:04.018Z,50.877159
2023-04-10T09:07:04.020Z,50.877148
2023-04-10T09:08:04.013Z,50.877102
2023-04-10T09:09:03.996Z,50.877163
2023-04-10T09:10:03.986Z,50.877178
2023-04-10T09:11:04.016Z,50.877277
2023-04-10T09:12:04.036Z,50.877232
2023-04-10T09:13:03.952Z,50.877258
2023-04-10T09:14:03.929Z,50.877190
2023-04-10T09:15:03.962Z,50.877201
2023-04-10T09:16:04.022Z,50.877190
2023-04-10T09:17:03.918Z,50.877182
2023-04-10T09:18:03.936Z,50.877163
2023-04-10T09:19:06.383Z,50.877163
2023-04-10T09:20:04.865Z,50.877132
2023-04-10T09:21:03.851Z,50.877178
2023-04-10T09:22:04.868Z,50.877205
2023-04-10T09:23:03.832Z,50.877224
2023-04-10T09:24:03.828Z,50.877186
2023-04-10T09:25:03.827Z,50.877182
2023-04-10T09:26:03.808Z,50.877186
2023-04-10T09:27:03.792Z,50.877159
2023-04-10T09:28:03.805Z,50.877163
2023-04-10T09:29:03.779Z,50.877171
2023-04-10T09:30:03.820Z,50.877190
2023-04-10T09:31:03.789Z,50.877190
2023-04-10T09:32:03.760Z,50.877209
2023-04-10T09:33:04.119Z,50.877201
2023-04-10T09:34:03.741Z,50.877197
2023-04-10T09:35:03.696Z,50.877193
2023-04-10T09:36:03.735Z,50.877174
2023-04-10T09:37:03.693Z,50.877129
2023-04-10T09:38:03.705Z,50.877117
2023-04-10T09:39:03.669Z,50.877129
2023-04-10T09:40:03.640Z,50.877132
2023-04-10T09:41:03.677Z,50.877144
2023-04-10T09:42:03.684Z,50.877159
2023-04-10T09:43:03.659Z,50.877182
2023-04-10T09:44:03.641Z,50.877178
2023-04-10T09:45:03.617Z,50.877178
2023-04-10T09:46:03.650Z,50.877140
2023-04-10T09:47:03.642Z,50.877144
2023-04-10T09:48:03.662Z,50.877132
2023-04-10T09:49:03.637Z,50.877163
2023-04-10T09:50:03.602Z,50.877163
2023-04-10T09:51:03.576Z,50.877155
2023-04-10T09:52:03.535Z,50.877193
2023-04-10T09:53:03.540Z,50.877182
2023-04-10T09:54:03.538Z,50.877190
2023-04-10T09:55:03.531Z,50.877186
2023-04-10T09:56:03.491Z,50.877182
2023-04-10T09:57:03.478Z,50.877186
2023-04-10T09:58:03.493Z,50.877186
2023-04-10T09:59:03.485Z,50.877197
2023-04-10T10:00:03.483Z,50.877182
2023-04-10T10:01:03.500Z,50.877174
2023-04-10T10:02:03.460Z,50.877174
2023-04-10T10:03:03.770Z,50.877155
2023-04-10T10:04:03.428Z,50.877155
2023-04-10T10:05:03.529Z,50.877129
2023-04-10T10:06:03.415Z,50.877254
2023-04-10T10:07:03.383Z,50.877117
2023-04-10T10:08:03.385Z,50.877110
2023-04-10T10:09:03.380Z,50.877014
2023-04-10T10:10:03.386Z,50.877041
2023-04-10T10:11:03.393Z,50.877048
2023-04-10T10:12:03.375Z,50.877106
2023-04-10T10:13:03.333Z,50.877094
2023-04-10T10:14:03.353Z,50.877048
2023-04-10T10:15:03.302Z,50.877090
2023-04-10T10:16:03.335Z,50.877113
2023-04-10T10:17:03.348Z,50.877056
2023-04-10T10:18:03.373Z,50.877029
2023-04-10T10:19:03.282Z,50.877029
2023-04-10T10:20:03.275Z,50.877029
2023-04-10T10:21:03.284Z,50.877029
2023-04-10T10:22:03.232Z,50.877029
2023-04-10T10:23:03.244Z,50.877029
2023-04-10T10:24:03.264Z,50.877029
2023-04-10T10:25:03.242Z,50.877029
2023-04-10T10:26:03.943Z,50.877029
2023-04-10T10:27:03.247Z,50.877029
2023-04-10T10:28:03.199Z,50.877029
2023-04-10T10:29:03.161Z,50.877029
2023-04-10T10:30:08.540Z,50.877029
2023-04-10T10:31:05.251Z,50.877029
2023-04-10T10:32:03.176Z,50.877029
2023-04-10T10:33:03.172Z,50.877117
2023-04-10T10:34:03.171Z,50.877106
2023-04-10T10:35:03.121Z,50.877129
2023-04-10T10:36:03.122Z,50.877098
2023-04-10T10:37:03.170Z,50.877110
2023-04-10T10:38:03.080Z,50.877083
2023-04-10T10:39:03.120Z,50.877110
2023-04-10T10:40:03.092Z,50.877090
2023-04-10T10:41:03.149Z,50.877068
2023-04-10T10:42:03.060Z,50.877079
2023-04-10T10:43:03.077Z,50.877098
2023-04-10T10:44:03.050Z,50.877140
2023-04-10T10:45:03.058Z,50.877182
2023-04-10T10:46:03.058Z,50.877148
2023-04-10T10:47:03.028Z,50.877129
2023-04-10T10:48:03.041Z,50.877090
2023-04-10T10:49:03.002Z,50.877113
2023-04-10T10:50:02.981Z,50.877136
2023-04-10T10:51:02.989Z,50.877136
2023-04-10T10:52:02.984Z,50.877148
2023-04-10T10:53:03.975Z,50.877106
2023-04-10T10:54:02.960Z,50.877121
2023-04-10T10:55:02.957Z,50.877151
2023-04-10T10:56:02.941Z,50.877106
2023-04-10T10:57:02.965Z,50.877113
2023-04-10T10:58:02.886Z,50.877113
2023-04-10T10:59:02.883Z,50.877106
2023-04-10T11:00:02.884Z,50.877117
2023-04-10T11:01:02.918Z,50.877132
2023-04-10T11:02:02.948Z,50.877136
2023-04-10T11:03:03.122Z,50.877159
2023-04-10T11:04:03.100Z,50.877167
2023-04-10T11:05:02.905Z,50.877151
2023-04-10T11:06:02.943Z,50.877159
2023-04-10T11:07:02.853Z,50.877144
2023-04-10T11:08:02.824Z,50.877171
2023-04-10T11:09:02.817Z,50.877182
2023-04-10T11:10:02.878Z,50.877167
2023-04-10T11:11:02.849Z,50.877167
2023-04-10T11:12:02.771Z,50.877148
2023-04-10T11:13:02.781Z,50.877136
2023-04-10T11:14:02.767Z,50.877159
2023-04-10T11:15:02.733Z,50.877171
2023-04-10T11:16:02.794Z,50.877174
2023-04-10T11:17:02.914Z,50.877182
2023-04-10T11:18:02.708Z,50.877178
2023-04-10T11:19:12.843Z,50.877178
2023-04-10T11:20:04.678Z,50.877174
2023-04-10T11:21:02.656Z,50.877186
2023-04-10T11:22:02.676Z,50.877174
2023-04-10T11:23:02.637Z,50.877155
2023-04-10T11:24:02.633Z,50.877174
2023-04-10T11:25:02.817Z,50.877197